sensor_id;sensor_type;location;lat;lon;timestamp;pressure;altitude;pressure_sealevel;temperature;humidity
49571;BME280;36970;39.352;20.286;2022-09-16T00:29:25;99485.00;;;21.43;100.00
49571;BME280;36970;39.352;20.286;2022-09-16T00:59:45;99476.09;;;21.44;100.00
49571;BME280;36970;39.352;20.286;2022-09-16T01:30:36;99445.53;;;21.27;100.00
49571;BME280;36970;39.352;20.286;2022-09-16T02:00:59;99428.34;;;21.02;100.00
49571;BME280;36970;39.352;20.286;2022-09-16T02:31:23;99422.34;;;20.93;100.00
49571;BME280;36970;39.352;20.286;2022-09-16T03:01:45;99413.22;;;20.09;100.00
49571;BME280;36970;39.352;20.286;2022-09-16T03:32:08;99406.13;;;20.24;100.00
49571;BME280;36970;39.352;20.286;2022-09-16T04:02:28;99387.50;;;20.61;100.00
49571;BME280;36970;39.352;20.286;2022-09-16T04:32:45;99404.03;;;20.34;100.00
49571;BME280;36970;39.352;20.286;2022-09-16T05:03:06;99361.84;;;19.89;100.00
49571;BME280;36970;39.352;20.286;2022-09-16T05:33:25;99322.72;;;20.50;71.87
49571;BME280;36970;39.352;20.286;2022-09-16T06:03:44;99320.03;;;22.52;66.14
49571;BME280;36970;39.352;20.286;2022-09-16T06:34:02;99353.38;;;22.81;87.29
49571;BME280;36970;39.352;20.286;2022-09-16T07:04:20;99392.91;;;23.10;78.19
49571;BME280;36970;39.352;20.286;2022-09-16T07:34:37;99395.47;;;23.63;100.00
49571;BME280;36970;39.352;20.286;2022-09-16T08:04:54;99394.25;;;23.79;100.00
49571;BME280;36970;39.352;20.286;2022-09-16T08:35:12;99385.06;;;24.14;100.00
49571;BME280;36970;39.352;20.286;2022-09-16T09:05:35;99431.44;;;24.70;96.41
49571;BME280;36970;39.352;20.286;2022-09-16T09:36:10;99437.16;;;24.54;100.00
49571;BME280;36970;39.352;20.286;2022-09-16T10:06:33;99426.66;;;25.35;100.00
49571;BME280;36970;39.352;20.286;2022-09-16T10:37:00;99475.06;;;25.26;100.00
49571;BME280;36970;39.352;20.286;2022-09-16T11:07:35;99474.34;;;24.93;100.00
49571;BME280;36970;39.352;20.286;2022-09-16T11:37:56;99394.38;;;26.48;100.00
49571;BME280;36970;39.352;20.286;2022-09-16T12:08:19;99335.09;;;27.64;100.00
49571;BME280;36970;39.352;20.286;2022-09-16T12:38:38;99317.59;;;27.27;100.00
49571;BME280;36970;39.352;20.286;2022-09-16T13:09:08;99285.03;;;27.94;100.00
49571;BME280;36970;39.352;20.286;2022-09-16T13:39:30;99234.50;;;28.60;100.00
49571;BME280;36970;39.352;20.286;2022-09-16T14:09:56;99206.31;;;29.35;92.89
49571;BME280;36970;39.352;20.286;2022-09-16T14:40:18;99214.66;;;28.33;100.00
49571;BME280;36970;39.352;20.286;2022-09-16T15:10:46;99202.69;;;26.45;100.00
49571;BME280;36970;39.352;20.286;2022-09-16T15:41:05;99158.44;;;25.90;100.00
49571;BME280;36970;39.352;20.286;2022-09-16T16:11:26;99157.31;;;24.70;100.00
49571;BME280;36970;39.352;20.286;2022-09-16T16:41:43;99080.84;;;24.28;100.00
49571;BME280;36970;39.352;20.286;2022-09-16T17:12:01;99118.31;;;23.76;100.00
49571;BME280;36970;39.352;20.286;2022-09-16T17:42:18;99136.28;;;23.74;100.00
49571;BME280;36970;39.352;20.286;2022-09-16T20:14:51;99063.38;;;22.54;100.00
49571;BME280;36970;39.352;20.286;2022-09-16T20:45:09;99065.44;;;22.46;100.00
49571;BME280;36970;39.352;20.286;2022-09-16T21:15:32;99113.16;;;22.85;100.00
49571;BME280;36970;39.352;20.286;2022-09-16T21:45:50;99106.25;;;22.51;100.00
49571;BME280;36970;39.352;20.286;2022-09-16T22:16:21;99089.41;;;22.12;100.00
49571;BME280;36970;39.352;20.286;2022-09-16T22:47:04;99093.94;;;22.31;100.00
49571;BME280;36970;39.352;20.286;2022-09-16T23:17:23;99074.31;;;22.06;100.00
